createdAt,value
2023-01-29T00:00:28.484Z,100696.28
2023-01-29T00:02:57.843Z,100691.63
2023-01-29T00:05:28.602Z,100687.09
2023-01-29T00:07:56.577Z,100694.00
2023-01-29T00:10:24.555Z,100693.38
2023-01-29T00:12:53.635Z,100697.78
2023-01-29T00:15:20.906Z,100698.34
2023-01-29T00:17:47.588Z,100704.72
2023-01-29T00:20:17.574Z,100706.53
2023-01-29T00:22:44.645Z,100710.56
2023-01-29T00:25:13.624Z,100709.75
2023-01-29T00:27:45.143Z,100708.84
2023-01-29T00:30:19.398Z,100709.94
2023-01-29T00:32:48.576Z,100716.25
2023-01-29T00:35:15.275Z,100711.75
2023-01-29T00:37:41.921Z,100717.16
2023-01-29T00:40:12.443Z,100714.84
2023-01-29T00:42:57.799Z,100717.94
2023-01-29T00:45:24.863Z,100723.03
2023-01-29T00:47:51.645Z,100725.22
2023-01-29T00:50:18.819Z,100719.75
2023-01-29T00:52:50.143Z,100721.09
2023-01-29T00:55:16.812Z,100723.72
2023-01-29T00:57:43.756Z,100719.94
2023-01-29T01:00:15.556Z,100717.59
2023-01-29T01:03:03.759Z,100724.34
2023-01-29T01:05:30.568Z,100722.28
2023-01-29T01:07:58.575Z,100725.59
2023-01-29T01:10:31.500Z,100728.75
2023-01-29T01:12:59.964Z,100725.63
2023-01-29T01:15:31.868Z,100726.97
2023-01-29T01:18:00.480Z,100731.53
2023-01-29T01:20:31.499Z,100725.38
2023-01-29T01:22:58.203Z,100723.84
2023-01-29T01:25:32.490Z,100729.91
2023-01-29T01:30:26.661Z,100724.72
2023-01-29T01:32:53.669Z,100730.88
2023-01-29T01:35:20.296Z,100731.34
2023-01-29T01:37:49.914Z,100740.44
2023-01-29T01:40:23.544Z,100743.31
2023-01-29T01:43:02.849Z,100746.72
2023-01-29T01:45:33.165Z,100747.25
2023-01-29T01:48:25.400Z,100754.16
2023-01-29T01:51:06.575Z,100751.94
2023-01-29T01:53:41.738Z,100750.81
2023-01-29T01:56:14.434Z,100745.59
2023-01-29T01:58:52.195Z,100750.47
2023-01-29T02:01:28.911Z,100749.41
2023-01-29T02:04:26.356Z,100746.13
2023-01-29T02:07:16.919Z,100755.38
2023-01-29T02:09:52.872Z,100750.75
2023-01-29T02:12:20.614Z,100755.09
2023-01-29T02:14:47.752Z,100756.66
2023-01-29T02:17:19.290Z,100760.47
2023-01-29T02:20:18.696Z,100760.13
2023-01-29T02:22:55.471Z,100764.25
2023-01-29T02:25:47.185Z,100770.66
2023-01-29T02:28:21.628Z,100770.28
2023-01-29T02:31:09.587Z,100768.00
2023-01-29T02:33:38.918Z,100764.47
2023-01-29T02:36:16.277Z,100771.06
2023-01-29T02:38:54.198Z,100777.28
2023-01-29T02:41:32.537Z,100769.97
2023-01-29T02:44:17.294Z,100777.34
2023-01-29T02:46:55.405Z,100782.94
2023-01-29T02:49:22.127Z,100789.63
2023-01-29T02:52:07.605Z,100784.38
2023-01-29T02:54:37.138Z,100789.00
2023-01-29T02:57:15.197Z,100794.81
2023-01-29T02:59:50.849Z,100798.41
2023-01-29T03:02:20.936Z,100800.28
2023-01-29T03:04:57.941Z,100790.06
2023-01-29T03:07:46.428Z,100792.44
2023-01-29T03:10:26.291Z,100785.34
2023-01-29T03:13:08.552Z,100794.34
2023-01-29T03:15:47.036Z,100794.03
2023-01-29T03:18:27.757Z,100791.19
2023-01-29T03:20:58.603Z,100798.09
2023-01-29T03:23:54.009Z,100793.16
2023-01-29T03:26:41.597Z,100795.09
2023-01-29T03:29:28.736Z,100795.09
2023-01-29T03:32:09.422Z,100795.09
2023-01-29T03:34:51.740Z,100800.78
2023-01-29T03:37:27.440Z,100802.44
2023-01-29T03:39:54.730Z,100797.84
2023-01-29T03:42:30.539Z,100803.13
2023-01-29T03:45:14.696Z,100805.44
2023-01-29T03:48:05.698Z,100816.72
2023-01-29T03:50:52.321Z,100822.81
2023-01-29T03:53:44.242Z,100816.41
2023-01-29T03:56:20.205Z,100812.88
2023-01-29T03:59:03.894Z,100804.03
2023-01-29T04:01:49.117Z,100807.34
2023-01-29T04:04:23.279Z,100808.88
2023-01-29T04:06:53.709Z,100809.09
2023-01-29T04:09:28.569Z,100802.28
2023-01-29T04:12:09.811Z,100808.81
2023-01-29T04:14:37.703Z,100807.53
2023-01-29T04:17:19.997Z,100810.16
2023-01-29T04:19:49.611Z,100818.53
2023-01-29T04:22:26.215Z,100819.78
2023-01-29T04:24:52.949Z,100814.91
2023-01-29T04:27:20.811Z,100812.81
2023-01-29T04:30:17.217Z,100798.06
2023-01-29T04:33:02.892Z,100811.59
2023-01-29T04:35:39.809Z,100801.66
2023-01-29T04:38:08.750Z,100804.25
2023-01-29T04:41:03.561Z,100802.84
2023-01-29T04:43:46.286Z,100807.16
2023-01-29T04:46:20.637Z,100807.28
2023-01-29T04:49:14.818Z,100806.53
2023-01-29T04:51:44.437Z,100809.06
2023-01-29T04:54:14.026Z,100798.38
2023-01-29T04:57:06.470Z,100799.94
2023-01-29T04:59:41.586Z,100807.09
2023-01-29T05:02:10.654Z,100810.28
2023-01-29T05:04:44.743Z,100808.50
2023-01-29T05:07:16.258Z,100799.50
2023-01-29T05:09:45.737Z,100804.66
2023-01-29T05:12:16.644Z,100803.69
2023-01-29T05:14:45.648Z,100804.69
2023-01-29T05:17:22.451Z,100811.81
2023-01-29T05:19:49.121Z,100804.13
2023-01-29T05:22:18.309Z,100813.56
2023-01-29T05:24:47.138Z,100809.16
2023-01-29T05:27:50.402Z,100800.81
2023-01-29T05:30:19.486Z,100800.59
2023-01-29T05:32:46.298Z,100799.91
2023-01-29T05:35:17.628Z,100799.16
2023-01-29T05:37:46.570Z,100813.47
2023-01-29T05:40:18.155Z,100807.66
2023-01-29T05:42:47.153Z,100808.44
2023-01-29T05:45:16.059Z,100808.53
2023-01-29T05:47:42.648Z,100804.34
2023-01-29T05:50:09.824Z,100808.91
2023-01-29T05:52:36.508Z,100810.66
2023-01-29T05:55:03.886Z,100806.00
2023-01-29T05:57:30.464Z,100821.22
2023-01-29T05:59:57.016Z,100817.69
2023-01-29T06:02:23.613Z,100817.53
2023-01-29T06:04:52.720Z,100816.97
2023-01-29T06:07:19.296Z,100816.50
2023-01-29T06:09:45.920Z,100813.25
2023-01-29T06:12:12.997Z,100826.06
2023-01-29T06:14:39.550Z,100828.97
2023-01-29T06:17:08.477Z,100823.09
2023-01-29T06:19:35.036Z,100828.69
2023-01-29T06:22:03.825Z,100824.00
2023-01-29T06:24:32.942Z,100833.22
2023-01-29T06:27:02.148Z,100841.25
2023-01-29T06:29:33.338Z,100841.19
2023-01-29T06:32:02.370Z,100854.03
2023-01-29T06:34:28.982Z,100852.38
2023-01-29T06:36:55.626Z,100866.78
2023-01-29T06:39:22.178Z,100856.88
2023-01-29T06:41:48.821Z,100859.97
2023-01-29T06:44:15.375Z,100866.53
2023-01-29T06:46:41.932Z,100873.50
2023-01-29T06:49:08.515Z,100867.88
2023-01-29T06:51:37.732Z,100874.72
2023-01-29T06:54:04.486Z,100871.81
2023-01-29T06:56:31.142Z,100878.97
2023-01-29T06:58:57.693Z,100874.91
2023-01-29T07:01:35.768Z,100870.28
2023-01-29T07:04:05.323Z,100877.09
2023-01-29T07:06:35.083Z,100870.94
2023-01-29T07:09:02.455Z,100872.25
2023-01-29T07:11:29.127Z,100875.75
2023-01-29T07:13:58.184Z,100876.00
2023-01-29T07:16:26.410Z,100876.22
2023-01-29T07:18:53.289Z,100865.22
2023-01-29T07:21:24.715Z,100869.19
2023-01-29T07:23:51.270Z,100868.53
2023-01-29T07:26:20.450Z,100863.69
2023-01-29T07:28:47.047Z,100861.72
2023-01-29T07:31:16.959Z,100869.75
2023-01-29T07:33:44.629Z,100869.84
2023-01-29T07:36:11.828Z,100858.66
2023-01-29T07:38:38.498Z,100852.59
2023-01-29T07:41:07.645Z,100860.38
2023-01-29T07:43:34.236Z,100853.56
2023-01-29T07:46:07.273Z,100848.94
2023-01-29T07:48:36.297Z,100847.19
2023-01-29T07:51:05.912Z,100846.31
2023-01-29T07:53:35.882Z,100846.22
2023-01-29T07:56:07.450Z,100852.81
2023-01-29T07:58:35.755Z,100849.69
2023-01-29T08:01:14.309Z,100853.66
2023-01-29T08:03:40.962Z,100856.81
2023-01-29T08:06:07.840Z,100848.44
2023-01-29T08:08:38.912Z,100852.72
2023-01-29T08:11:08.115Z,100853.97
2023-01-29T08:13:37.264Z,100855.94
2023-01-29T08:16:04.807Z,100859.66
2023-01-29T08:18:31.680Z,100851.06
2023-01-29T08:21:02.198Z,100857.81
2023-01-29T08:23:28.818Z,100862.25
2023-01-29T08:25:55.473Z,100858.63
2023-01-29T08:28:22.216Z,100866.88
2023-01-29T08:30:48.835Z,100866.75
2023-01-29T08:33:19.362Z,100871.44
2023-01-29T08:38:19.105Z,100875.72
2023-01-29T08:40:45.720Z,100870.31
2023-01-29T08:43:13.812Z,100880.88
2023-01-29T08:45:42.648Z,100883.13
2023-01-29T08:48:14.841Z,100890.38
2023-01-29T08:50:43.736Z,100891.34
2023-01-29T08:53:10.401Z,100893.84
2023-01-29T08:55:38.699Z,100899.88
2023-01-29T08:58:10.429Z,100914.84
2023-01-29T09:00:37.343Z,100915.56
2023-01-29T09:03:04.175Z,100911.22
2023-01-29T09:05:30.839Z,100916.63
2023-01-29T09:07:57.942Z,100916.13
2023-01-29T09:10:27.462Z,100921.28
2023-01-29T09:12:59.029Z,100914.63
2023-01-29T09:15:27.947Z,100923.00
2023-01-29T09:17:54.505Z,100916.53
2023-01-29T09:20:21.432Z,100913.88
2023-01-29T09:22:53.563Z,100921.31
2023-01-29T09:25:20.523Z,100928.13
2023-01-29T09:27:49.426Z,100927.03
2023-01-29T09:30:16.709Z,100917.13
2023-01-29T09:32:53.288Z,100915.53
2023-01-29T09:35:24.795Z,100922.78
2023-01-29T09:37:52.008Z,100930.09
2023-01-29T09:40:33.874Z,100931.88
2023-01-29T09:43:11.587Z,100928.19
2023-01-29T09:45:52.502Z,100925.19
2023-01-29T09:48:22.186Z,100935.66
2023-01-29T09:50:55.205Z,100936.88
2023-01-29T09:53:30.032Z,100939.38
2023-01-29T09:56:04.928Z,100935.91
2023-01-29T09:58:39.870Z,100925.88
2023-01-29T10:01:19.047Z,100936.00
2023-01-29T10:04:13.647Z,100938.25
2023-01-29T10:06:55.184Z,100935.16
2023-01-29T10:10:00.501Z,100930.28
2023-01-29T10:12:27.045Z,100935.13
2023-01-29T10:15:14.000Z,100933.19
2023-01-29T10:17:40.637Z,100936.78
2023-01-29T10:20:31.386Z,100935.31
2023-01-29T10:23:00.196Z,100928.25
2023-01-29T10:25:34.626Z,100931.81
2023-01-29T10:28:01.881Z,100922.38
2023-01-29T10:30:28.758Z,100928.16
2023-01-29T10:32:59.923Z,100932.84
2023-01-29T10:35:32.448Z,100931.88
2023-01-29T10:38:18.201Z,100926.72
2023-01-29T10:41:10.343Z,100931.31
2023-01-29T10:44:05.884Z,100931.09
2023-01-29T10:46:50.732Z,100920.66
2023-01-29T10:49:36.109Z,100912.19
2023-01-29T10:52:11.252Z,100915.69
2023-01-29T10:55:08.340Z,100911.19
2023-01-29T10:58:03.080Z,100907.91
2023-01-29T11:00:42.141Z,100904.16
2023-01-29T11:03:30.678Z,100890.31
2023-01-29T11:06:04.033Z,100884.38
2023-01-29T11:08:52.590Z,100876.03
2023-01-29T11:11:24.660Z,100884.69
2023-01-29T11:14:07.295Z,100880.97
2023-01-29T11:16:45.661Z,100880.63
2023-01-29T11:19:16.010Z,100879.75
2023-01-29T11:21:53.313Z,100866.25
2023-01-29T11:24:19.937Z,100850.84
2023-01-29T11:26:49.210Z,100854.03
2023-01-29T11:29:38.273Z,100848.09
2023-01-29T11:32:11.581Z,100861.19
2023-01-29T11:35:00.645Z,100848.09
2023-01-29T11:37:42.074Z,100848.09
2023-01-29T11:40:23.932Z,100844.34
2023-01-29T11:42:53.879Z,100844.03
2023-01-29T11:45:20.631Z,100842.38
2023-01-29T11:47:56.380Z,100832.03
2023-01-29T11:50:29.448Z,100823.56
2023-01-29T11:53:01.245Z,100830.59
2023-01-29T11:55:49.353Z,100816.25
2023-01-29T11:58:18.815Z,100813.91
2023-01-29T12:00:50.887Z,100823.84
2023-01-29T12:03:25.117Z,100816.13
2023-01-29T12:06:15.530Z,100811.06
2023-01-29T12:08:44.246Z,100814.84
2023-01-29T12:11:30.378Z,100814.94
2023-01-29T12:14:02.504Z,100815.91
2023-01-29T12:17:03.903Z,100820.88
2023-01-29T12:19:36.600Z,100828.38
2023-01-29T12:22:23.636Z,100814.53
2023-01-29T12:24:59.914Z,100811.94
2023-01-29T12:27:38.586Z,100813.44
2023-01-29T12:30:17.155Z,100817.78
2023-01-29T12:33:05.161Z,100822.47
2023-01-29T12:35:56.156Z,100813.56
2023-01-29T12:38:24.060Z,100813.56
2023-01-29T12:40:59.869Z,100812.06
2023-01-29T12:43:39.079Z,100816.53
2023-01-29T12:46:13.911Z,100817.13
2023-01-29T12:48:43.723Z,100811.50
2023-01-29T12:51:17.527Z,100815.56
2023-01-29T12:53:51.315Z,100818.41
2023-01-29T12:56:26.806Z,100815.78
2023-01-29T12:58:57.424Z,100812.25
2023-01-29T13:01:53.008Z,100811.97
2023-01-29T13:04:48.060Z,100798.00
2023-01-29T13:07:18.856Z,100803.69
2023-01-29T13:09:50.752Z,100794.88
2023-01-29T13:15:31.386Z,100780.84
2023-01-29T13:18:19.997Z,100774.47
2023-01-29T13:20:49.716Z,100781.06
2023-01-29T13:23:24.668Z,100774.91
2023-01-29T13:25:53.678Z,100769.41
2023-01-29T13:28:27.247Z,100762.59
2023-01-29T13:31:32.785Z,100757.56
2023-01-29T13:33:59.448Z,100752.03
2023-01-29T13:36:29.764Z,100753.72
2023-01-29T13:39:05.761Z,100760.84
2023-01-29T13:41:45.327Z,100763.47
2023-01-29T13:44:25.926Z,100764.59
2023-01-29T13:46:56.856Z,100761.94
2023-01-29T13:49:38.007Z,100770.41
2023-01-29T13:52:35.984Z,100767.53
2023-01-29T13:55:09.854Z,100762.38
2023-01-29T13:57:39.388Z,100759.31
2023-01-29T14:00:06.608Z,100760.19
2023-01-29T14:02:33.432Z,100752.03
2023-01-29T14:05:31.148Z,100735.16
2023-01-29T14:08:02.814Z,100749.00
2023-01-29T14:10:34.569Z,100763.22
2023-01-29T14:13:04.342Z,100759.50
2023-01-29T14:15:34.211Z,100763.22
2023-01-29T14:18:00.878Z,100767.19
2023-01-29T14:20:56.991Z,100760.38
2023-01-29T14:23:32.044Z,100757.56
2023-01-29T14:26:04.916Z,100759.28
2023-01-29T14:28:34.299Z,100763.44
2023-01-29T14:31:07.672Z,100772.06
2023-01-29T14:33:43.602Z,100765.69
2023-01-29T14:36:22.462Z,100771.84
2023-01-29T14:38:53.867Z,100763.47
2023-01-29T14:41:36.106Z,100766.09
2023-01-29T14:44:42.775Z,100764.25
2023-01-29T14:47:22.386Z,100767.97
2023-01-29T14:49:48.984Z,100764.91
2023-01-29T14:52:21.573Z,100758.88
2023-01-29T14:54:52.632Z,100765.91
2023-01-29T14:57:23.714Z,100772.66
2023-01-29T14:59:53.359Z,100774.38
2023-01-29T15:02:33.312Z,100771.16
2023-01-29T15:05:02.511Z,100765.84
2023-01-29T15:07:48.686Z,100766.78
2023-01-29T15:10:35.793Z,100760.50
2023-01-29T15:13:15.729Z,100762.16
2023-01-29T15:16:02.978Z,100756.66
2023-01-29T15:18:46.320Z,100759.19
2023-01-29T15:21:19.892Z,100760.19
2023-01-29T15:24:04.605Z,100760.38
2023-01-29T15:26:31.402Z,100753.84
2023-01-29T15:29:04.632Z,100751.63
2023-01-29T15:31:34.170Z,100738.88
2023-01-29T15:34:10.371Z,100746.53
2023-01-29T15:36:37.731Z,100747.19
2023-01-29T15:39:13.373Z,100756.34
2023-01-29T15:41:39.903Z,100763.25
2023-01-29T15:44:24.010Z,100754.38
2023-01-29T15:47:02.238Z,100759.63
2023-01-29T15:57:04.512Z,100765.69
2023-01-29T16:13:46.910Z,100776.66
2023-01-29T16:16:16.424Z,100777.25
2023-01-29T16:22:38.983Z,100785.03
2023-01-29T16:25:15.005Z,100776.91
2023-01-29T16:27:44.690Z,100789.22
2023-01-29T16:30:15.730Z,100789.31
2023-01-29T16:39:51.035Z,100805.09
2023-01-29T16:42:20.038Z,100804.72
2023-01-29T16:44:55.629Z,100814.31
2023-01-29T16:47:33.260Z,100808.56
2023-01-29T16:50:18.033Z,100812.91
2023-01-29T16:53:02.023Z,100815.25
2023-01-29T16:55:45.819Z,100804.38
2023-01-29T16:58:17.074Z,100810.88
2023-01-29T17:00:56.192Z,100813.56
2023-01-29T17:03:28.466Z,100802.19
2023-01-29T17:06:09.845Z,100807.75
2023-01-29T17:08:37.643Z,100819.03
2023-01-29T17:11:05.503Z,100812.47
2023-01-29T17:24:36.584Z,100813.13
2023-01-29T17:27:05.997Z,100808.84
2023-01-29T17:29:42.978Z,100807.03
2023-01-29T17:36:20.145Z,100796.78
2023-01-29T17:38:47.056Z,100782.38
2023-01-29T17:41:33.129Z,100784.47
2023-01-29T17:44:51.035Z,100782.53
2023-01-29T18:00:41.556Z,100765.44
2023-01-29T18:12:36.331Z,100759.31
2023-01-29T18:15:33.273Z,100768.50
2023-01-29T18:18:07.544Z,100760.72
2023-01-29T18:23:40.130Z,100748.75
2023-01-29T18:26:19.115Z,100732.44
2023-01-29T18:28:45.926Z,100743.28
2023-01-29T18:38:29.800Z,100744.34
2023-01-29T18:48:34.717Z,100742.63
2023-01-29T18:55:19.887Z,100748.44
2023-01-29T18:58:26.349Z,100747.44
2023-01-29T19:00:35.726Z,100736.25
2023-01-29T19:03:14.701Z,100745.84
2023-01-29T19:13:05.808Z,100744.81
2023-01-29T19:15:36.009Z,100739.84
2023-01-29T19:18:07.176Z,100746.59
2023-01-29T19:20:39.114Z,100732.34
2023-01-29T19:28:19.013Z,100735.00
2023-01-29T19:31:20.854Z,100735.59
2023-01-29T19:34:14.984Z,100728.81
2023-01-29T19:37:11.945Z,100726.13
2023-01-29T19:39:48.970Z,100720.47
2023-01-29T19:42:40.496Z,100719.88
2023-01-29T19:45:37.226Z,100714.25
2023-01-29T19:49:00.006Z,100717.03
2023-01-29T19:56:02.239Z,100704.66
2023-01-29T20:15:37.218Z,100715.50
2023-01-29T20:18:05.692Z,100712.97
2023-01-29T20:20:32.821Z,100715.56
2023-01-29T20:23:05.120Z,100707.22
2023-01-29T20:25:35.700Z,100702.72
2023-01-29T20:28:02.388Z,100704.78
2023-01-29T20:30:29.098Z,100697.97
2023-01-29T20:32:55.764Z,100705.81
2023-01-29T20:35:22.515Z,100696.81
2023-01-29T20:37:51.505Z,100687.84
2023-01-29T20:40:18.669Z,100697.41
2023-01-29T20:42:50.104Z,100698.91
2023-01-29T20:45:22.112Z,100704.91
2023-01-29T20:47:51.346Z,100678.75
2023-01-29T20:50:20.720Z,100698.13
2023-01-29T20:52:49.779Z,100691.84
2023-01-29T20:58:56.771Z,100702.00
2023-01-29T21:01:28.296Z,100699.50
2023-01-29T21:03:55.115Z,100699.94
2023-01-29T21:11:09.096Z,100700.91
2023-01-29T21:13:36.431Z,100703.94
2023-01-29T21:16:03.893Z,100720.06
2023-01-29T21:18:30.655Z,100718.88
2023-01-29T21:20:57.424Z,100717.66
2023-01-29T21:23:24.230Z,100727.59
2023-01-29T21:25:50.974Z,100725.09
2023-01-29T21:28:17.819Z,100722.84
2023-01-29T21:30:44.662Z,100730.13
2023-01-29T21:33:14.394Z,100732.13
2023-01-29T21:35:41.107Z,100735.44
2023-01-29T21:38:07.831Z,100727.56
2023-01-29T21:40:34.638Z,100719.78
2023-01-29T21:43:13.358Z,100722.88
2023-01-29T21:45:41.010Z,100727.56
2023-01-29T21:48:10.844Z,100725.56
2023-01-29T21:50:38.216Z,100728.78
2023-01-29T21:53:05.218Z,100727.50
2023-01-29T21:55:32.920Z,100717.94
2023-01-29T21:58:00.591Z,100722.00
2023-01-29T22:00:28.015Z,100709.81
2023-01-29T22:02:59.707Z,100709.53
2023-01-29T22:05:26.753Z,100700.66
2023-01-29T22:07:53.453Z,100697.81
2023-01-29T22:10:20.977Z,100696.44
2023-01-29T22:13:14.462Z,100689.00
2023-01-29T22:15:41.198Z,100685.00
2023-01-29T22:18:07.941Z,100682.09
2023-01-29T22:20:36.865Z,100679.47
2023-01-29T22:23:03.669Z,100680.28
2023-01-29T22:25:43.754Z,100666.09
2023-01-29T22:28:10.519Z,100664.69
2023-01-29T22:30:37.288Z,100669.84
2023-01-29T22:33:04.115Z,100672.09
2023-01-29T22:38:20.406Z,100659.78
2023-01-29T22:40:54.315Z,100657.22
2023-01-29T22:43:24.315Z,100654.97
2023-01-29T22:45:50.946Z,100656.13
2023-01-29T22:48:18.035Z,100653.59
2023-01-29T22:50:53.994Z,100656.16
2023-01-29T22:53:44.672Z,100641.72
2023-01-29T22:56:17.614Z,100640.69
2023-01-29T22:58:44.394Z,100654.72
2023-01-29T23:01:13.528Z,100643.50
2023-01-29T23:03:45.529Z,100636.34
2023-01-29T23:06:12.558Z,100638.31
2023-01-29T23:08:46.795Z,100635.94
2023-01-29T23:11:25.755Z,100637.97
2023-01-29T23:13:58.305Z,100637.47
2023-01-29T23:16:30.958Z,100636.56
2023-01-29T23:19:03.803Z,100633.59
2023-01-29T23:21:31.741Z,100632.06
2023-01-29T23:23:59.672Z,100627.97
2023-01-29T23:26:48.275Z,100628.59
2023-01-29T23:29:20.117Z,100624.16
2023-01-29T23:31:56.585Z,100621.94
2023-01-29T23:34:23.336Z,100621.09
2023-01-29T23:36:59.082Z,100617.13
2023-01-29T23:39:35.035Z,100605.53
2023-01-29T23:42:04.965Z,100607.03
2023-01-29T23:44:31.849Z,100608.53
2023-01-29T23:46:59.021Z,100603.78
2023-01-29T23:49:25.868Z,100597.25
2023-01-29T23:51:52.739Z,100598.13
2023-01-29T23:54:26.656Z,100604.69
2023-01-29T23:56:53.522Z,100600.84
2023-01-29T23:59:22.707Z,100599.66
